createdAt,value
2018-10-09T18:05:45.737Z,20.70
2018-10-09T18:08:14.159Z,14.70
2018-10-09T18:10:42.836Z,14.50
2018-10-09T18:13:11.409Z,14.40
2018-10-09T18:15:39.833Z,14.30
2018-10-09T18:18:08.122Z,14.20
2018-10-09T18:20:36.626Z,14.20
2018-10-09T18:23:04.952Z,14.10
2018-10-09T18:25:33.249Z,14.10
2018-10-09T18:28:01.615Z,14.00
2018-10-09T18:30:30.139Z,14.00
2018-10-09T18:32:58.729Z,13.80
2018-10-09T18:35:26.961Z,13.80
2018-10-09T18:37:55.285Z,13.70
2018-10-09T18:40:23.737Z,13.60
2018-10-09T18:42:52.017Z,13.60
2018-10-09T18:45:25.125Z,13.60
2018-10-09T18:47:53.581Z,13.60
2018-10-09T18:50:21.877Z,13.60
2018-10-09T18:52:50.565Z,13.50
2018-10-09T18:55:19.037Z,13.50
2018-10-09T18:57:47.382Z,13.40
2018-10-09T19:00:15.761Z,13.40
2018-10-09T19:02:44.131Z,13.40
2018-10-09T19:05:12.445Z,13.40
2018-10-09T19:07:40.786Z,13.40
2018-10-09T19:10:09.701Z,13.40
2018-10-09T19:12:38.173Z,13.20
2018-10-09T19:15:06.530Z,13.20
2018-10-09T19:17:34.893Z,13.10
2018-10-09T19:20:03.229Z,13.10
2018-10-09T19:22:31.558Z,13.00
2018-10-09T19:24:59.889Z,13.00
2018-10-09T19:27:28.266Z,12.90
2018-10-09T19:29:56.577Z,12.90
2018-10-09T19:32:25.134Z,12.90
2018-10-09T19:34:53.438Z,12.90
2018-10-09T19:37:21.830Z,12.90
2018-10-09T19:39:50.217Z,12.80
2018-10-09T19:42:18.606Z,12.80
2018-10-09T19:44:46.922Z,12.70
2018-10-09T19:47:15.258Z,12.70
2018-10-09T19:49:43.609Z,12.70
2018-10-09T19:52:11.954Z,12.70
2018-10-09T19:54:40.281Z,12.70
2018-10-09T19:57:08.625Z,12.70
2018-10-09T19:59:36.952Z,12.70
2018-10-09T20:02:05.325Z,12.60
2018-10-09T20:04:33.678Z,12.50
2018-10-09T20:07:02.037Z,12.50
2018-10-09T20:09:30.378Z,12.50
2018-10-09T20:11:58.713Z,12.50
2018-10-09T20:14:27.136Z,12.50
2018-10-09T20:16:55.546Z,12.50
2018-10-09T20:19:23.889Z,12.50
2018-10-09T20:21:52.218Z,12.50
2018-10-09T20:24:20.654Z,12.50
2018-10-09T20:26:48.958Z,12.40
2018-10-09T20:29:17.306Z,12.40
2018-10-09T20:31:45.624Z,12.40
2018-10-09T20:34:13.922Z,12.40
2018-10-09T20:36:42.282Z,12.30
2018-10-09T20:39:10.663Z,12.30
2018-10-09T20:41:38.976Z,12.20
2018-10-09T20:44:07.307Z,12.20
2018-10-09T20:46:35.659Z,12.20
2018-10-09T20:49:04.019Z,12.10
2018-10-09T20:51:32.471Z,12.10
2018-10-09T20:54:00.807Z,12.10
2018-10-09T20:56:29.170Z,12.10
2018-10-09T20:58:57.535Z,12.00
2018-10-09T21:01:25.955Z,11.90
2018-10-09T21:03:57.354Z,11.80
2018-10-09T21:06:25.702Z,11.80
2018-10-09T21:11:22.131Z,11.80
2018-10-09T21:13:50.558Z,11.60
2018-10-09T21:18:46.881Z,11.50
2018-10-09T21:21:15.178Z,11.40
2018-10-09T21:26:11.566Z,11.40
2018-10-09T21:28:39.882Z,11.20
2018-10-09T21:31:08.200Z,11.30
2018-10-09T21:33:36.533Z,11.30
2018-10-09T21:36:05.079Z,11.20
2018-10-09T21:38:33.448Z,11.20
2018-10-09T21:41:01.851Z,11.10
2018-10-09T21:43:30.167Z,11.20
2018-10-09T21:45:58.492Z,11.20
2018-10-09T21:48:26.818Z,11.10
2018-10-09T21:50:55.123Z,11.10
2018-10-09T21:53:23.439Z,11.10
2018-10-09T21:55:51.739Z,11.10
2018-10-09T21:58:20.133Z,11.00
2018-10-09T22:00:53.812Z,11.10
2018-10-09T22:03:22.272Z,11.10
2018-10-09T22:05:50.610Z,11.00
2018-10-09T22:08:24.743Z,11.00
